createdAt,value
2018-11-21T00:00:03.608Z,94763.63
2018-11-21T00:02:33.193Z,94771.33
2018-11-21T00:05:02.828Z,94772.47
2018-11-21T00:07:35.865Z,94776.38
2018-11-21T00:10:07.631Z,94781.41
2018-11-21T00:12:37.722Z,94779.45
2018-11-21T00:15:09.832Z,94778.66
2018-11-21T00:17:39.455Z,94771.00
2018-11-21T00:20:11.190Z,94776.68
2018-11-21T00:22:40.783Z,94780.95
2018-11-21T00:25:10.711Z,94788.33
2018-11-21T00:27:40.487Z,94787.09
2018-11-21T00:30:13.209Z,94792.11
2018-11-21T00:32:42.784Z,94788.11
2018-11-21T00:35:12.860Z,94787.69
2018-11-21T00:37:42.448Z,94782.77
2018-11-21T00:40:13.990Z,94791.48
2018-11-21T00:43:02.214Z,94785.62
2018-11-21T00:45:31.865Z,94791.74
2018-11-21T00:48:01.493Z,94794.94
2018-11-21T00:50:50.493Z,94793.22
2018-11-21T00:53:20.448Z,94796.50
2018-11-21T00:55:50.052Z,94795.50
2018-11-21T00:58:19.723Z,94797.00
2018-11-21T01:00:49.307Z,94801.64
2018-11-21T01:03:18.942Z,94806.14
2018-11-21T01:05:48.547Z,94805.31
2018-11-21T01:08:18.193Z,94806.66
2018-11-21T01:10:47.811Z,94807.05
2018-11-21T01:13:17.501Z,94811.11
2018-11-21T01:15:47.106Z,94818.42
2018-11-21T01:20:52.049Z,94819.70
2018-11-21T01:23:21.684Z,94813.62
2018-11-21T01:25:51.259Z,94812.89
2018-11-21T01:28:20.845Z,94807.59
2018-11-21T01:30:50.478Z,94811.63
2018-11-21T01:33:20.051Z,94806.83
2018-11-21T01:35:49.763Z,94810.89
2018-11-21T01:38:19.710Z,94808.98
2018-11-21T01:40:49.445Z,94810.07
2018-11-21T01:43:19.442Z,94802.02
2018-11-21T01:45:50.277Z,94797.50
2018-11-21T01:48:19.910Z,94795.94
2018-11-21T01:50:49.520Z,94797.05
2018-11-21T01:53:37.780Z,94800.22
2018-11-21T01:56:07.437Z,94796.27
2018-11-21T01:58:37.011Z,94804.23
2018-11-21T02:01:07.672Z,94798.05
2018-11-21T02:03:37.766Z,94795.81
2018-11-21T02:06:08.051Z,94794.09
2018-11-21T02:08:38.040Z,94799.49
2018-11-21T02:11:07.682Z,94792.19
2018-11-21T02:13:37.277Z,94795.05
2018-11-21T02:16:07.586Z,94789.64
2018-11-21T02:18:37.215Z,94790.64
2018-11-21T02:21:06.908Z,94783.34
2018-11-21T02:23:36.517Z,94786.17
2018-11-21T02:26:06.555Z,94788.62
2018-11-21T02:28:36.167Z,94787.52
2018-11-21T02:31:06.368Z,94791.14
2018-11-21T02:33:54.713Z,94797.84
2018-11-21T02:36:24.308Z,94792.79
2018-11-21T02:38:53.943Z,94790.96
2018-11-21T02:41:23.521Z,94789.62
2018-11-21T02:43:53.149Z,94789.09
2018-11-21T02:46:22.732Z,94799.46
2018-11-21T02:48:52.527Z,94805.59
2018-11-21T02:51:22.689Z,94803.69
2018-11-21T02:53:52.352Z,94810.83
2018-11-21T02:56:21.932Z,94817.42
2018-11-21T02:58:51.547Z,94816.42
2018-11-21T03:01:21.129Z,94814.69
2018-11-21T03:03:50.738Z,94816.31
2018-11-21T03:06:20.336Z,94813.92
2018-11-21T03:08:49.969Z,94819.81
2018-11-21T03:11:19.643Z,94821.72
2018-11-21T03:14:09.103Z,94827.75
2018-11-21T03:16:38.626Z,94829.96
2018-11-21T03:19:27.251Z,94823.73
2018-11-21T03:21:56.859Z,94828.19
2018-11-21T03:24:26.513Z,94840.73
2018-11-21T03:26:57.136Z,94846.87
2018-11-21T03:29:27.905Z,94854.30
2018-11-21T03:31:57.477Z,94856.48
2018-11-21T03:34:27.163Z,94855.97
2018-11-21T03:36:57.056Z,94858.16
2018-11-21T03:39:27.768Z,94859.27
2018-11-21T03:41:57.487Z,94857.36
2018-11-21T03:44:27.182Z,94863.16
2018-11-21T03:47:15.750Z,94861.48
2018-11-21T03:49:45.526Z,94860.31
2018-11-21T03:52:15.519Z,94863.67
2018-11-21T03:54:45.098Z,94862.32
2018-11-21T03:57:14.723Z,94865.34
2018-11-21T03:59:44.315Z,94863.60
2018-11-21T04:02:14.307Z,94875.24
2018-11-21T04:04:43.904Z,94864.59
2018-11-21T04:07:13.622Z,94865.66
2018-11-21T04:09:43.201Z,94873.98
2018-11-21T04:12:13.475Z,94879.27
2018-11-21T04:14:43.107Z,94889.64
2018-11-21T04:17:12.689Z,94888.32
2018-11-21T04:19:43.279Z,94884.22
2018-11-21T04:22:31.766Z,94887.06
2018-11-21T04:27:55.621Z,94888.54
2018-11-21T04:30:25.228Z,94888.99
2018-11-21T04:32:54.810Z,94897.79
2018-11-21T04:35:24.450Z,94891.45
2018-11-21T04:37:54.015Z,94897.77
2018-11-21T04:40:23.641Z,94899.14
2018-11-21T04:42:53.289Z,94895.22
2018-11-21T04:45:22.876Z,94898.06
2018-11-21T04:47:52.502Z,94895.75
2018-11-21T04:52:58.126Z,94901.71
2018-11-21T04:58:02.699Z,94901.45
2018-11-21T05:00:32.333Z,94899.69
2018-11-21T05:03:01.919Z,94903.37
2018-11-21T05:05:31.504Z,94899.70
2018-11-21T05:10:36.157Z,94912.35
2018-11-21T05:13:05.767Z,94913.74
2018-11-21T05:15:35.351Z,94902.09
2018-11-21T05:18:04.991Z,94905.67
2018-11-21T05:20:35.606Z,94902.55
2018-11-21T05:23:05.609Z,94902.00
2018-11-21T05:25:35.191Z,94906.68
2018-11-21T05:28:04.912Z,94919.86
2018-11-21T05:30:34.879Z,94919.59
2018-11-21T05:33:04.520Z,94924.06
2018-11-21T05:35:34.235Z,94931.23
2018-11-21T05:38:03.902Z,94931.86
2018-11-21T05:40:33.847Z,94937.56
2018-11-21T05:43:03.522Z,94942.41
2018-11-21T05:45:33.252Z,94943.04
2018-11-21T05:48:02.963Z,94947.17
2018-11-21T05:50:52.206Z,94950.94
2018-11-21T05:53:21.845Z,94958.72
2018-11-21T05:55:51.464Z,94967.41
2018-11-21T05:58:21.053Z,94964.96
2018-11-21T06:00:50.740Z,94966.70
2018-11-21T06:03:20.375Z,94973.86
2018-11-21T06:05:49.967Z,94975.14
2018-11-21T06:08:19.582Z,94981.46
2018-11-21T06:10:50.116Z,94977.52
2018-11-21T06:13:19.849Z,94982.64
2018-11-21T06:15:49.452Z,94983.93
2018-11-21T06:18:19.085Z,94979.45
2018-11-21T06:20:48.670Z,94984.31
2018-11-21T06:23:37.213Z,94985.59
2018-11-21T06:26:07.171Z,94985.16
2018-11-21T06:28:55.436Z,94984.69
2018-11-21T06:31:25.140Z,94992.34
2018-11-21T06:33:54.822Z,94994.11
2018-11-21T06:36:24.507Z,94993.34
2018-11-21T06:38:54.020Z,94994.12
2018-11-21T06:41:23.640Z,94988.51
2018-11-21T06:43:53.260Z,94994.50
2018-11-21T06:46:22.913Z,95007.73
2018-11-21T06:48:52.544Z,95004.01
2018-11-21T06:51:41.099Z,95003.88
2018-11-21T06:54:12.990Z,95008.55
2018-11-21T06:56:42.704Z,95008.56
2018-11-21T06:59:12.274Z,95016.37
2018-11-21T07:02:00.532Z,95016.91
2018-11-21T07:04:30.125Z,95022.89
2018-11-21T07:06:59.737Z,95014.39
2018-11-21T07:09:29.709Z,95011.64
2018-11-21T07:11:59.497Z,95009.25
2018-11-21T07:14:30.181Z,95010.55
2018-11-21T07:17:18.836Z,95005.14
2018-11-21T07:19:48.420Z,95019.54
2018-11-21T07:22:18.044Z,95021.53
2018-11-21T07:24:47.617Z,95029.34
2018-11-21T07:27:17.327Z,95026.61
2018-11-21T07:29:46.907Z,95027.04
2018-11-21T07:32:16.522Z,95023.19
2018-11-21T07:34:46.127Z,95025.27
2018-11-21T07:37:34.371Z,95031.46
2018-11-21T07:40:04.502Z,95029.05
2018-11-21T07:42:34.543Z,95033.47
2018-11-21T07:45:04.147Z,95031.29
2018-11-21T07:50:29.831Z,95041.34
2018-11-21T07:53:00.714Z,95044.37
2018-11-21T07:55:30.628Z,95043.56
2018-11-21T07:58:02.716Z,95037.77
2018-11-21T08:01:28.849Z,95037.69
2018-11-21T08:04:17.180Z,95045.95
2018-11-21T08:07:05.407Z,95047.89
2018-11-21T08:12:48.200Z,95041.09
2018-11-21T08:15:36.461Z,95045.11
2018-11-21T08:18:24.756Z,95049.80
2018-11-21T08:21:13.030Z,95051.71
2018-11-21T08:24:01.248Z,95065.02
2018-11-21T08:26:49.584Z,95072.91
2018-11-21T08:29:19.513Z,95085.19
2018-11-21T08:32:09.431Z,95082.89
2018-11-21T08:34:39.006Z,95084.39
2018-11-21T08:37:28.946Z,95093.16
2018-11-21T08:39:58.533Z,95092.89
2018-11-21T08:42:46.789Z,95092.20
2018-11-21T08:45:16.357Z,95094.53
2018-11-21T08:47:45.969Z,95094.44
2018-11-21T08:50:15.540Z,95096.75
2018-11-21T08:52:45.579Z,95093.54
2018-11-21T08:55:15.149Z,95095.44
2018-11-21T08:57:44.772Z,95098.16
2018-11-21T09:00:15.353Z,95103.84
2018-11-21T09:05:55.882Z,95098.58
2018-11-21T09:08:24.761Z,95096.06
2018-11-21T09:10:53.127Z,95103.98
2018-11-21T09:13:21.474Z,95101.03
2018-11-21T09:15:50.276Z,95097.38
2018-11-21T09:18:18.632Z,95103.31
2018-11-21T09:20:47.479Z,95106.95
2018-11-21T09:23:16.311Z,95113.38
2018-11-21T09:25:45.133Z,95118.77
2018-11-21T09:28:13.496Z,95111.83
2018-11-21T09:30:41.894Z,95108.57
2018-11-21T09:33:10.601Z,95105.52
2018-11-21T09:38:14.024Z,95099.34
2018-11-21T09:43:16.503Z,95093.63
2018-11-21T09:45:44.933Z,95095.50
2018-11-21T09:48:13.363Z,95100.86
2018-11-21T09:50:41.725Z,95099.93
2018-11-21T09:53:10.181Z,95106.30
2018-11-21T09:55:40.538Z,95106.59
2018-11-21T09:58:06.941Z,95111.13
2018-11-21T10:01:13.998Z,95108.37
2018-11-21T10:03:42.385Z,95114.24
2018-11-21T10:06:16.447Z,95108.23
2018-11-21T10:08:46.546Z,95121.14
2018-11-21T10:11:15.379Z,95104.75
2018-11-21T10:13:43.731Z,95100.13
2018-11-21T10:16:12.497Z,95098.16
2018-11-21T10:18:42.659Z,95101.19
2018-11-21T10:21:12.630Z,95095.06
2018-11-21T10:23:40.991Z,95097.75
2018-11-21T10:26:09.568Z,95101.23
2018-11-21T10:28:38.278Z,95096.47
2018-11-21T10:31:06.627Z,95096.22
2018-11-21T10:33:35.375Z,95101.25
2018-11-21T10:36:04.401Z,95099.98
2018-11-21T10:38:33.159Z,95100.43
2018-11-21T10:41:01.508Z,95100.16
2018-11-21T10:43:30.349Z,95107.20
2018-11-21T10:45:58.698Z,95104.27
2018-11-21T10:48:27.050Z,95107.22
2018-11-21T10:50:55.487Z,95101.59
2018-11-21T10:53:24.142Z,95094.64
2018-11-21T10:55:52.503Z,95087.88
2018-11-21T10:58:20.894Z,95088.80
2018-11-21T11:01:08.319Z,95091.63
2018-11-21T11:03:39.262Z,95095.38
2018-11-21T11:06:26.737Z,95090.99
2018-11-21T11:09:14.574Z,95098.23
2018-11-21T11:12:02.063Z,95099.78
2018-11-21T11:15:08.902Z,95104.47
2018-11-21T11:17:59.525Z,95104.57
2018-11-21T11:20:43.799Z,95113.92
2018-11-21T11:23:31.252Z,95116.92
2018-11-21T11:26:18.868Z,95119.55
2018-11-21T11:29:06.319Z,95125.37
2018-11-21T11:31:53.730Z,95129.91
2018-11-21T11:34:41.184Z,95129.29
2018-11-21T11:37:28.597Z,95130.03
2018-11-21T11:40:16.054Z,95122.23
2018-11-21T11:43:03.807Z,95124.16
2018-11-21T11:45:51.255Z,95119.96
2018-11-21T11:48:38.674Z,95117.58
2018-11-21T11:51:26.123Z,95111.52
2018-11-21T11:54:13.540Z,95112.73
2018-11-21T11:59:54.310Z,95108.34
2018-11-21T12:02:42.333Z,95106.95
2018-11-21T12:05:29.741Z,95109.42
2018-11-21T12:08:15.638Z,95110.45
2018-11-21T12:11:03.134Z,95111.64
2018-11-21T12:13:50.579Z,95115.05
2018-11-21T12:16:37.997Z,95116.22
2018-11-21T12:19:25.472Z,95115.11
2018-11-21T12:22:12.885Z,95113.20
2018-11-21T12:25:00.575Z,95106.05
2018-11-21T12:27:37.951Z,95111.64
2018-11-21T12:30:27.563Z,95104.83
2018-11-21T12:33:15.043Z,95102.37
2018-11-21T12:36:02.459Z,95105.22
2018-11-21T12:38:49.926Z,95110.25
2018-11-21T12:41:37.338Z,95109.53
2018-11-21T12:44:24.826Z,95115.05
2018-11-21T12:47:12.244Z,95117.23
2018-11-21T12:49:59.696Z,95116.61
2018-11-21T12:52:47.106Z,95112.27
2018-11-21T12:55:34.857Z,95117.69
2018-11-21T12:58:22.270Z,95118.14
2018-11-21T13:01:09.723Z,95117.13
2018-11-21T13:03:57.133Z,95117.48
2018-11-21T13:06:44.651Z,95120.64
2018-11-21T13:09:32.162Z,95123.48
2018-11-21T13:12:19.802Z,95121.65
2018-11-21T13:15:07.331Z,95116.05
2018-11-21T13:17:48.872Z,95123.56
2018-11-21T13:20:36.289Z,95125.41
2018-11-21T13:23:23.802Z,95128.98
2018-11-21T13:26:11.339Z,95131.55
2018-11-21T13:28:58.822Z,95127.24
2018-11-21T13:31:42.412Z,95123.66
2018-11-21T13:34:29.882Z,95131.83
2018-11-21T13:37:17.293Z,95138.08
2018-11-21T13:42:58.964Z,95139.19
2018-11-21T13:45:46.795Z,95139.01
2018-11-21T13:48:34.215Z,95146.34
2018-11-21T13:51:22.043Z,95152.77
2018-11-21T13:54:09.466Z,95152.87
2018-11-21T13:56:38.043Z,95153.69
2018-11-21T13:59:06.404Z,95165.24
2018-11-21T14:01:34.820Z,95161.83
2018-11-21T14:06:38.081Z,95163.77
2018-11-21T14:09:09.700Z,95164.98
2018-11-21T14:11:38.111Z,95170.40
2018-11-21T14:14:06.727Z,95168.28
2018-11-21T14:16:35.201Z,95166.80
2018-11-21T14:19:03.564Z,95168.73
2018-11-21T14:21:31.981Z,95166.73
2018-11-21T14:24:00.842Z,95166.73
2018-11-21T14:26:29.616Z,95171.59
2018-11-21T14:28:58.594Z,95174.72
2018-11-21T14:31:26.964Z,95180.30
2018-11-21T14:33:55.338Z,95181.59
2018-11-21T14:36:23.747Z,95184.06
2018-11-21T14:38:52.644Z,95188.29
2018-11-21T14:43:55.932Z,95191.70
2018-11-21T14:46:24.356Z,95185.08
2018-11-21T14:48:52.732Z,95189.21
2018-11-21T14:51:21.734Z,95189.59
2018-11-21T14:53:50.099Z,95197.11
2018-11-21T14:56:18.527Z,95209.31
2018-11-21T14:58:46.895Z,95218.50
2018-11-21T15:01:15.604Z,95220.43
2018-11-21T15:03:44.104Z,95223.05
2018-11-21T15:06:12.465Z,95229.81
2018-11-21T15:08:40.989Z,95236.12
2018-11-21T15:11:09.905Z,95243.38
2018-11-21T15:16:12.339Z,95240.27
2018-11-21T15:21:16.592Z,95250.39
2018-11-21T15:23:43.722Z,95255.27
2018-11-21T15:26:32.085Z,95258.78
2018-11-21T15:29:00.884Z,95263.02
2018-11-21T15:31:29.250Z,95268.70
2018-11-21T15:33:57.612Z,95265.03
2018-11-21T15:36:26.054Z,95274.66
2018-11-21T15:38:54.418Z,95274.95
2018-11-21T15:41:22.888Z,95276.24
2018-11-21T15:46:25.421Z,95284.55
2018-11-21T15:48:53.781Z,95287.65
2018-11-21T15:51:22.199Z,95285.80
2018-11-21T15:53:50.564Z,95291.55
2018-11-21T15:56:19.091Z,95284.14
2018-11-21T15:58:47.868Z,95286.90
2018-11-21T16:01:16.230Z,95294.98
2018-11-21T16:03:44.652Z,95294.41
2018-11-21T16:06:13.125Z,95296.88
2018-11-21T16:08:42.024Z,95298.86
2018-11-21T16:11:29.847Z,95298.31
2018-11-21T16:13:58.298Z,95308.22
2018-11-21T16:16:26.655Z,95308.25
2018-11-21T16:18:55.015Z,95309.44
2018-11-21T16:21:23.506Z,95314.58
2018-11-21T16:23:51.945Z,95320.91
2018-11-21T16:26:20.539Z,95327.23
2018-11-21T16:28:49.275Z,95323.94
2018-11-21T16:31:17.774Z,95332.67
2018-11-21T16:33:46.139Z,95324.47
2018-11-21T16:36:14.499Z,95331.22
2018-11-21T16:38:42.901Z,95334.72
2018-11-21T16:41:11.757Z,95340.59
2018-11-21T16:43:40.177Z,95333.44
2018-11-21T16:46:08.528Z,95333.95
2018-11-21T16:48:37.021Z,95335.33
2018-11-21T16:51:05.921Z,95337.45
2018-11-21T16:53:35.175Z,95339.09
2018-11-21T16:56:02.744Z,95338.22
2018-11-21T16:58:31.222Z,95345.29
2018-11-21T17:00:59.677Z,95343.36
2018-11-21T17:03:28.167Z,95348.36
2018-11-21T17:05:56.630Z,95349.65
2018-11-21T17:08:25.007Z,95349.39
2018-11-21T17:10:53.799Z,95348.91
2018-11-21T17:13:22.909Z,95353.05
2018-11-21T17:15:51.506Z,95354.77
2018-11-21T17:18:19.879Z,95357.69
2018-11-21T17:20:48.630Z,95358.27
2018-11-21T17:23:17.008Z,95368.68
2018-11-21T17:25:45.497Z,95360.61
2018-11-21T17:28:13.857Z,95366.16
2018-11-21T17:30:42.313Z,95355.02
2018-11-21T17:33:10.689Z,95355.92
2018-11-21T17:35:39.067Z,95361.16
2018-11-21T17:38:07.630Z,95362.75
2018-11-21T17:40:38.347Z,95361.23
2018-11-21T17:43:06.961Z,95360.23
2018-11-21T17:45:35.324Z,95361.20
2018-11-21T17:48:03.958Z,95361.41
2018-11-21T17:50:32.411Z,95370.69
2018-11-21T17:53:02.253Z,95370.10
2018-11-21T17:55:31.612Z,95369.51
2018-11-21T17:58:00.187Z,95370.50
2018-11-21T18:00:29.984Z,95368.61
2018-11-21T18:02:58.360Z,95373.59
2018-11-21T18:05:45.873Z,95372.27
2018-11-21T18:08:14.368Z,95373.70
2018-11-21T18:10:42.970Z,95376.63
2018-11-21T18:13:11.374Z,95374.26
2018-11-21T18:15:39.979Z,95378.84
2018-11-21T18:18:08.971Z,95377.62
2018-11-21T18:20:37.333Z,95385.77
2018-11-21T18:23:05.759Z,95383.54
2018-11-21T18:25:53.179Z,95388.43
2018-11-21T18:28:21.872Z,95400.13
2018-11-21T18:30:50.343Z,95390.37
2018-11-21T18:33:18.725Z,95394.09
2018-11-21T18:35:47.187Z,95391.77
2018-11-21T18:38:15.593Z,95402.03
2018-11-21T18:40:44.813Z,95401.50
2018-11-21T18:43:13.217Z,95405.14
2018-11-21T18:45:43.885Z,95407.17
2018-11-21T18:48:12.575Z,95412.21
2018-11-21T18:50:41.258Z,95412.27
2018-11-21T18:53:10.382Z,95418.06
2018-11-21T18:55:59.471Z,95418.22
2018-11-21T18:58:34.555Z,95414.93
2018-11-21T19:01:02.946Z,95416.09
2018-11-21T19:06:05.723Z,95419.10
2018-11-21T19:08:35.126Z,95423.34
2018-11-21T19:11:03.483Z,95421.17
2018-11-21T19:16:07.386Z,95429.61
2018-11-21T19:18:36.047Z,95429.80
2018-11-21T19:21:04.754Z,95425.58
2018-11-21T19:23:33.507Z,95434.73
2018-11-21T19:26:02.085Z,95435.65
2018-11-21T19:28:30.499Z,95437.47
2018-11-21T19:33:32.104Z,95438.13
2018-11-21T19:36:00.864Z,95439.20
2018-11-21T19:38:29.227Z,95443.86
2018-11-21T19:40:57.740Z,95445.09
2018-11-21T19:46:00.259Z,95444.77
2018-11-21T19:48:28.877Z,95447.21
2018-11-21T19:50:57.314Z,95454.44
2018-11-21T19:53:25.671Z,95451.44
2018-11-21T19:55:55.431Z,95455.38
2018-11-21T19:58:24.666Z,95455.38
2018-11-21T20:00:53.050Z,95458.38
2018-11-21T20:05:56.454Z,95457.92
2018-11-21T20:08:24.872Z,95462.45
2018-11-21T20:10:53.321Z,95463.20
2018-11-21T20:13:21.695Z,95464.70
2018-11-21T20:18:23.832Z,95463.79
2018-11-21T20:20:52.499Z,95469.09
2018-11-21T20:23:20.936Z,95464.18
2018-11-21T20:25:49.359Z,95468.64
2018-11-21T20:28:17.725Z,95465.84
2018-11-21T20:30:46.663Z,95462.76
2018-11-21T20:33:15.037Z,95465.98
2018-11-21T20:35:43.426Z,95467.34
2018-11-21T20:38:11.833Z,95464.03
2018-11-21T20:40:40.708Z,95473.00
2018-11-21T20:43:09.135Z,95468.77
2018-11-21T20:45:37.497Z,95468.41
2018-11-21T20:48:06.029Z,95470.58
2018-11-21T20:50:34.884Z,95462.75
2018-11-21T20:53:03.252Z,95467.89
2018-11-21T20:55:32.507Z,95471.78
2018-11-21T20:58:00.906Z,95472.93
2018-11-21T21:05:32.992Z,95473.67
2018-11-21T21:10:35.276Z,95468.38
2018-11-21T21:13:03.604Z,95469.44
2018-11-21T21:15:31.969Z,95468.69
2018-11-21T21:18:01.662Z,95465.23
2018-11-21T21:20:29.053Z,95466.74
2018-11-21T21:22:58.638Z,95471.48
2018-11-21T21:25:28.484Z,95469.84
2018-11-21T21:27:56.919Z,95470.72
2018-11-21T21:30:27.108Z,95473.20
2018-11-21T21:32:55.557Z,95471.64
2018-11-21T21:35:25.034Z,95466.05
2018-11-21T21:37:53.969Z,95470.37
2018-11-21T21:40:22.880Z,95467.50
2018-11-21T21:42:51.205Z,95461.92
2018-11-21T21:47:55.536Z,95467.10
2018-11-21T21:52:59.972Z,95466.74
2018-11-21T21:55:29.508Z,95468.70
2018-11-21T21:57:58.984Z,95468.41
2018-11-21T22:00:28.373Z,95473.07
2018-11-21T22:02:58.141Z,95473.23
2018-11-21T22:05:26.645Z,95473.73
2018-11-21T22:10:29.612Z,95468.38
2018-11-21T22:12:58.179Z,95473.16
2018-11-21T22:15:27.966Z,95480.31
2018-11-21T22:17:57.882Z,95478.59
2018-11-21T22:20:26.358Z,95476.25
2018-11-21T22:22:55.051Z,95478.95
2018-11-21T22:25:23.971Z,95483.19
2018-11-21T22:27:52.330Z,95475.63
2018-11-21T22:30:21.221Z,95476.47
2018-11-21T22:32:50.713Z,95475.50
2018-11-21T22:35:24.936Z,95478.64
2018-11-21T22:37:51.365Z,95475.94
2018-11-21T22:42:51.470Z,95484.30
2018-11-21T22:45:21.213Z,95484.83
2018-11-21T22:47:49.560Z,95484.86
2018-11-21T22:50:21.670Z,95484.47
2018-11-21T22:55:24.794Z,95488.92
2018-11-21T22:57:53.985Z,95494.20
2018-11-21T23:00:42.092Z,95491.63
2018-11-21T23:03:11.242Z,95498.41
2018-11-21T23:05:39.921Z,95500.30
2018-11-21T23:08:27.721Z,95502.41
2018-11-21T23:10:56.127Z,95497.86
2018-11-21T23:13:24.541Z,95497.33
2018-11-21T23:15:53.030Z,95499.09
2018-11-21T23:18:21.659Z,95502.77
2018-11-21T23:20:50.011Z,95499.23
2018-11-21T23:23:18.422Z,95495.98
2018-11-21T23:25:47.223Z,95495.39
2018-11-21T23:28:15.646Z,95493.00
2018-11-21T23:30:44.134Z,95497.34
2018-11-21T23:33:12.931Z,95500.70
2018-11-21T23:38:15.699Z,95493.75
2018-11-21T23:40:44.123Z,95498.27
2018-11-21T23:43:12.490Z,95507.19
2018-11-21T23:45:41.762Z,95500.52
2018-11-21T23:48:10.434Z,95501.45
2018-11-21T23:50:39.169Z,95504.74
2018-11-21T23:53:07.574Z,95502.49
2018-11-21T23:55:35.939Z,95499.48
2018-11-21T23:58:04.333Z,95496.53
